Kivalina Airport Kivalina US
ICAO: PAVL
IATA:
Category: Medium
Scheduled Services:

Elevation: 13 ft
TransAlt. 18000 ft.

Airport Communications:
ANCHORAGE CNTR:119.2
ASOS:135.8
CTAF/UNICOM:122.8
KOTZEBUE RDO:122.55

PAVL Zoom In..

If you have problems with the map follow the link
https://www.worldairports.se/pages/airport.php?
ICAO=PAVL

Runways:

(A) RW 12 length 3000 ft width 60 ft
---- / hdg 122

(B) RW 30 length 3000 ft width 60 ft
---- / hdg 302

Location; PAVL
Day. 20 / Time. 09.53 Zulu
* Altimeter: 29.47
* Temperature: -14° c. -6.8°f.
* Wind from: 110° Speed 14 kn.
Dewpoint: -21° c.
Visibility: 10 Statute Miles.
Clouds: Scattered 9000 ft.
Clouds: Broken 11000 ft.

PAVL 200953Z AUTO 11014KT 10SM SCT090 BKN110 M14/M21 A2947 RMK AO2 SLP978 T11391206 TSNO $


Wind From 110°
Speed 14 kn.

 
 
jpsmedia worldairports.se 2020   terms of use